Time;durP1;ratioP1;P1;durP2;ratioP2;P2;SDS_P1;SDS_P2;PMS_P1;PMS_P2;Temp;Humidity;BMP_temperature;BMP_pressure;BME280_temperature;BME280_humidity;BME280_pressure;Samples;Min_cycle;Max_cycle;Signal;HPM_P1;HPM_P2
2021/03/05 00:01:09;;;;;;;13.82;6.80;;;;;;;;;;5040704;28;20037;-44
2021/03/05 00:03:35;;;;;;;11.35;6.75;;;;;;;;;;5053134;28;20029;-44
2021/03/05 00:06:01;;;;;;;12.70;6.47;;;;;;;;;;5051533;28;20453;-45
2021/03/05 00:08:27;;;;;;;13.90;6.85;;;;;;;;;;5049153;28;20055;-45
2021/03/05 00:10:53;;;;;;;14.23;6.57;;;;;;;;;;5039069;28;20083;-45
2021/03/05 00:13:20;;;;;;;15.80;7.35;;;;;;;;;;5034585;28;20029;-44
2021/03/05 00:15:46;;;;;;;12.90;6.40;;;;;;;;;;5046732;28;20083;-44
2021/03/05 00:18:13;;;;;;;17.65;7.38;;;;;;;;;;5046264;28;20029;-44
2021/03/05 00:20:40;;;;;;;12.52;6.72;;;;;;;;;;5034597;28;20117;-45
2021/03/05 00:23:06;;;;;;;12.63;6.70;;;;;;;;;;5039890;28;20032;-45
2021/03/05 00:25:32;;;;;;;15.30;7.15;;;;;;;;;;5047392;28;20021;-44
2021/03/05 00:27:58;;;;;;;14.13;7.35;;;;;;;;;;5035325;28;20049;-44
2021/03/05 00:30:25;;;;;;;13.18;6.22;;;;;;;;;;5034137;28;20385;-44
2021/03/05 00:32:51;;;;;;;20.83;7.70;;;;;;;;;;5052695;28;20419;-44
2021/03/05 00:35:17;;;;;;;19.58;8.15;;;;;;;;;;5047095;28;20481;-44
2021/03/05 00:37:43;;;;;;;20.05;8.18;;;;;;;;;;5036046;28;20060;-44
2021/03/05 00:40:11;;;;;;;20.52;8.65;;;;;;;;;;5033780;28;20072;-44
2021/03/05 00:42:37;;;;;;;17.17;7.63;;;;;;;;;;5034145;28;20351;-44
2021/03/05 00:45:04;;;;;;;19.17;8.35;;;;;;;;;;5033944;28;20041;-44
2021/03/05 00:47:30;;;;;;;18.85;8.85;;;;;;;;;;5036854;28;20060;-44
2021/03/05 00:49:56;;;;;;;19.13;7.63;;;;;;;;;;5034098;28;20381;-44
2021/03/05 00:52:22;;;;;;;16.88;8.32;;;;;;;;;;5052456;28;20025;-44
2021/03/05 00:54:48;;;;;;;21.63;8.10;;;;;;;;;;5042145;28;20036;-45
2021/03/05 00:57:14;;;;;;;17.67;8.30;;;;;;;;;;5042669;28;20034;-45
2021/03/05 00:59:40;;;;;;;19.05;7.95;;;;;;;;;;5040248;28;20021;-45
2021/03/05 01:02:05;;;;;;;18.85;7.65;;;;;;;;;;5047513;28;20539;-44
2021/03/05 01:04:31;;;;;;;25.77;9.05;;;;;;;;;;5047094;28;20048;-45
2021/03/05 01:06:57;;;;;;;21.23;9.15;;;;;;;;;;5033898;28;20040;-44
2021/03/05 01:09:23;;;;;;;25.15;8.85;;;;;;;;;;5044055;28;20026;-44
2021/03/05 01:11:50;;;;;;;17.50;8.40;;;;;;;;;;5040730;28;20108;-44
2021/03/05 01:14:16;;;;;;;23.30;8.70;;;;;;;;;;5039386;28;20101;-44
2021/03/05 01:16:42;;;;;;;26.73;8.80;;;;;;;;;;5033729;28;20029;-44
2021/03/05 01:19:09;;;;;;;19.42;8.60;;;;;;;;;;5033669;28;20120;-46
2021/03/05 01:21:35;;;;;;;21.80;8.80;;;;;;;;;;5041813;28;20091;-45
2021/03/05 01:24:01;;;;;;;23.88;9.30;;;;;;;;;;5032962;28;20033;-44
2021/03/05 01:26:27;;;;;;;22.67;8.18;;;;;;;;;;5038909;28;20117;-44
2021/03/05 01:28:53;;;;;;;25.50;8.80;;;;;;;;;;5034907;28;20081;-44
2021/03/05 01:31:19;;;;;;;26.63;8.07;;;;;;;;;;5045936;28;20030;-45
2021/03/05 01:33:45;;;;;;;19.98;7.70;;;;;;;;;;5034069;28;20047;-45
2021/03/05 01:36:11;;;;;;;21.17;8.00;;;;;;;;;;5033261;28;20026;-44
2021/03/05 01:38:38;;;;;;;21.05;7.82;;;;;;;;;;5046294;28;20430;-44
2021/03/05 01:41:04;;;;;;;25.67;8.45;;;;;;;;;;5037189;28;20104;-44
2021/03/05 01:43:32;;;;;;;22.85;7.28;;;;;;;;;;5047328;28;20380;-46
2021/03/05 01:45:58;;;;;;;22.58;7.35;;;;;;;;;;5052678;28;20047;-44
2021/03/05 01:48:24;;;;;;;23.55;7.25;;;;;;;;;;5052556;28;20108;-45
2021/03/05 01:50:54;;;;;;;18.67;6.53;;;;;;;;;;5038021;28;20040;-44
2021/03/05 01:53:21;;;;;;;25.00;7.38;;;;;;;;;;5032552;28;20124;-45
2021/03/05 01:55:47;;;;;;;18.75;7.22;;;;;;;;;;5041307;28;20074;-44
2021/03/05 01:58:13;;;;;;;20.10;6.82;;;;;;;;;;5052896;28;20025;-45
2021/03/05 02:00:44;;;;;;;20.38;7.68;;;;;;;;;;5045808;28;20053;-44
2021/03/05 02:03:10;;;;;;;18.42;7.25;;;;;;;;;;5038230;28;20033;-45
2021/03/05 02:05:37;;;;;;;25.38;6.90;;;;;;;;;;5041578;28;20025;-45
2021/03/05 02:08:03;;;;;;;24.92;8.55;;;;;;;;;;5051419;28;20112;-45
2021/03/05 02:10:29;;;;;;;28.35;8.30;;;;;;;;;;5037366;28;20231;-44
2021/03/05 02:12:55;;;;;;;26.23;8.77;;;;;;;;;;5039132;28;20396;-44
2021/03/05 02:15:21;;;;;;;35.83;9.25;;;;;;;;;;5038413;28;20022;-44
2021/03/05 02:18:03;;;;;;;33.10;8.40;;;;;;;;;;5037773;28;20124;-45
2021/03/05 02:20:39;;;;;;;35.40;9.68;;;;;;;;;;5050422;28;20048;-45
2021/03/05 02:23:21;;;;;;;24.40;8.50;;;;;;;;;;5036172;28;20029;-44
2021/03/05 02:26:06;;;;;;;32.95;10.15;;;;;;;;;;5043744;28;20155;-44
2021/03/05 02:28:58;;;;;;;27.67;8.20;;;;;;;;;;5048906;28;20140;-45
2021/03/05 02:31:31;;;;;;;29.92;8.18;;;;;;;;;;5044340;28;20108;-45
2021/03/05 02:34:01;;;;;;;28.45;8.40;;;;;;;;;;5054529;28;20029;-44
2021/03/05 02:36:32;;;;;;;30.13;9.02;;;;;;;;;;5045935;28;20067;-45
2021/03/05 02:39:01;;;;;;;28.15;8.27;;;;;;;;;;5054237;28;20036;-44
2021/03/05 02:41:27;;;;;;;22.15;8.63;;;;;;;;;;5037319;28;20021;-44
2021/03/05 02:43:55;;;;;;;30.27;8.25;;;;;;;;;;5045012;28;20041;-44
2021/03/05 02:46:22;;;;;;;33.85;9.93;;;;;;;;;;5045907;28;20021;-45
2021/03/05 02:48:50;;;;;;;26.98;8.45;;;;;;;;;;5047118;28;20557;-44
2021/03/05 02:51:17;;;;;;;19.70;7.65;;;;;;;;;;5053665;28;20032;-44
2021/03/05 02:53:43;;;;;;;29.95;8.38;;;;;;;;;;5054382;28;20029;-44
2021/03/05 02:56:12;;;;;;;25.00;8.77;;;;;;;;;;5054260;28;20552;-44
2021/03/05 02:58:39;;;;;;;27.15;7.88;;;;;;;;;;5046097;28;20401;-44
2021/03/05 03:01:08;;;;;;;24.85;8.52;;;;;;;;;;5035955;28;20112;-44
2021/03/05 03:03:34;;;;;;;28.80;8.80;;;;;;;;;;5054743;28;20099;-44
2021/03/05 03:06:00;;;;;;;20.33;7.50;;;;;;;;;;5043333;28;20026;-44
2021/03/05 03:08:27;;;;;;;27.95;9.93;;;;;;;;;;5044425;28;20120;-44
2021/03/05 03:10:53;;;;;;;22.25;8.43;;;;;;;;;;5043395;28;20029;-44
2021/03/05 03:13:19;;;;;;;22.05;8.35;;;;;;;;;;5041842;28;20116;-44
2021/03/05 03:15:45;;;;;;;24.20;8.30;;;;;;;;;;5055946;28;20445;-44
2021/03/05 03:18:12;;;;;;;20.48;7.47;;;;;;;;;;5041498;28;20138;-45
2021/03/05 03:20:39;;;;;;;24.48;8.30;;;;;;;;;;5042694;28;20035;-44
2021/03/05 03:23:05;;;;;;;18.25;6.82;;;;;;;;;;5040376;28;20060;-45
2021/03/05 03:25:31;;;;;;;18.77;6.95;;;;;;;;;;5043124;28;20056;-44
2021/03/05 03:27:57;;;;;;;19.23;7.32;;;;;;;;;;5038147;28;20059;-44
2021/03/05 03:30:24;;;;;;;16.45;6.53;;;;;;;;;;5048344;28;20108;-44
2021/03/05 03:32:50;;;;;;;17.50;6.88;;;;;;;;;;5055513;28;20063;-44
2021/03/05 03:35:16;;;;;;;16.90;7.15;;;;;;;;;;5055191;28;20473;-45
2021/03/05 03:37:43;;;;;;;23.75;7.13;;;;;;;;;;5035527;28;20105;-44
2021/03/05 03:40:10;;;;;;;15.63;6.05;;;;;;;;;;5041350;28;20039;-44
2021/03/05 03:42:36;;;;;;;17.95;6.60;;;;;;;;;;5049088;28;20021;-44
2021/03/05 03:45:05;;;;;;;15.02;6.20;;;;;;;;;;5036486;28;20409;-44
2021/03/05 03:47:32;;;;;;;16.65;6.80;;;;;;;;;;5036399;28;20032;-44
2021/03/05 03:49:59;;;;;;;14.82;6.07;;;;;;;;;;5048369;28;20119;-44
2021/03/05 03:52:27;;;;;;;17.60;6.38;;;;;;;;;;5053757;28;20025;-44
2021/03/05 03:54:55;;;;;;;16.33;5.85;;;;;;;;;;5049121;28;20033;-45
2021/03/05 03:57:22;;;;;;;15.07;6.60;;;;;;;;;;5047620;28;20040;-45
2021/03/05 03:59:49;;;;;;;11.80;5.65;;;;;;;;;;5054812;28;20025;-44
2021/03/05 04:02:15;;;;;;;16.92;5.90;;;;;;;;;;5044658;28;20127;-45
2021/03/05 04:04:42;;;;;;;12.70;5.55;;;;;;;;;;5051852;28;20031;-45
2021/03/05 04:07:08;;;;;;;10.55;5.70;;;;;;;;;;5038631;28;20101;-44
2021/03/05 04:09:35;;;;;;;14.70;5.60;;;;;;;;;;5050396;28;20145;-44
2021/03/05 04:12:02;;;;;;;11.38;5.30;;;;;;;;;;5046036;28;20057;-45
2021/03/05 04:14:29;;;;;;;13.13;5.45;;;;;;;;;;5034107;28;20034;-44
2021/03/05 04:16:58;;;;;;;11.82;5.20;;;;;;;;;;5043247;28;20064;-44
2021/03/05 04:19:25;;;;;;;13.73;5.95;;;;;;;;;;5048902;28;20377;-44
2021/03/05 04:21:52;;;;;;;15.93;5.45;;;;;;;;;;5052297;28;20029;-44
2021/03/05 04:24:18;;;;;;;14.43;6.03;;;;;;;;;;5039531;28;20037;-44
2021/03/05 04:26:45;;;;;;;13.90;6.10;;;;;;;;;;5040525;28;20390;-44
2021/03/05 04:29:11;;;;;;;15.63;5.85;;;;;;;;;;5048604;28;20031;-45
2021/03/05 04:31:37;;;;;;;13.48;5.80;;;;;;;;;;5033595;28;20108;-44
2021/03/05 04:34:03;;;;;;;12.57;5.28;;;;;;;;;;5043871;28;20100;-45
2021/03/05 04:36:29;;;;;;;13.23;5.63;;;;;;;;;;5034396;28;20361;-44
2021/03/05 04:38:55;;;;;;;11.18;4.72;;;;;;;;;;5038122;28;20030;-44
2021/03/05 04:41:21;;;;;;;13.27;5.60;;;;;;;;;;5050794;28;20465;-44
2021/03/05 04:43:47;;;;;;;16.92;6.25;;;;;;;;;;5045356;28;20041;-44
2021/03/05 04:46:14;;;;;;;12.70;5.95;;;;;;;;;;5054190;28;20118;-44
2021/03/05 04:48:40;;;;;;;12.45;5.45;;;;;;;;;;5043694;28;20022;-44
2021/03/05 04:51:05;;;;;;;15.55;6.00;;;;;;;;;;5034553;28;20112;-46
2021/03/05 04:53:31;;;;;;;13.52;5.10;;;;;;;;;;5036882;28;20155;-45
2021/03/05 04:55:57;;;;;;;12.27;5.15;;;;;;;;;;5053740;28;20028;-45
2021/03/05 04:58:23;;;;;;;12.57;5.40;;;;;;;;;;5053506;28;20032;-44
2021/03/05 05:00:49;;;;;;;14.48;6.55;;;;;;;;;;5053745;28;20098;-44
2021/03/05 05:03:15;;;;;;;12.82;6.05;;;;;;;;;;5033785;28;20053;-45
2021/03/05 05:05:41;;;;;;;10.45;5.88;;;;;;;;;;5033818;28;20042;-44
2021/03/05 05:08:08;;;;;;;10.20;6.38;;;;;;;;;;5033338;28;20433;-44
2021/03/05 05:10:34;;;;;;;13.63;6.40;;;;;;;;;;5043997;28;20504;-44
2021/03/05 05:13:00;;;;;;;13.82;5.97;;;;;;;;;;5036729;28;20109;-44
2021/03/05 05:15:26;;;;;;;12.68;6.13;;;;;;;;;;5032878;28;20162;-44
2021/03/05 05:17:52;;;;;;;11.40;6.78;;;;;;;;;;5033404;28;20060;-44
2021/03/05 05:20:18;;;;;;;18.90;9.55;;;;;;;;;;5041168;28;20021;-44
2021/03/05 05:22:44;;;;;;;18.13;8.90;;;;;;;;;;5037131;28;20125;-44
2021/03/05 05:25:10;;;;;;;12.60;7.45;;;;;;;;;;5040037;28;20009;-45
2021/03/05 05:27:36;;;;;;;17.63;8.07;;;;;;;;;;5032783;28;20136;-44
2021/03/05 05:30:06;;;;;;;12.93;6.78;;;;;;;;;;5042478;28;20040;-44
2021/03/05 05:32:32;;;;;;;12.70;6.93;;;;;;;;;;5051810;28;20041;-44
2021/03/05 05:34:58;;;;;;;12.13;6.18;;;;;;;;;;5045185;28;20025;-44
2021/03/05 05:37:24;;;;;;;12.30;6.45;;;;;;;;;;5039021;28;20048;-44
2021/03/05 05:39:50;;;;;;;11.80;6.00;;;;;;;;;;5049370;28;20017;-44
2021/03/05 05:42:17;;;;;;;10.43;5.82;;;;;;;;;;5049888;28;20033;-44
2021/03/05 05:44:43;;;;;;;13.82;6.63;;;;;;;;;;5042460;28;20033;-44
2021/03/05 05:47:12;;;;;;;9.88;5.95;;;;;;;;;;5036396;28;20465;-44
2021/03/05 05:49:38;;;;;;;10.73;6.03;;;;;;;;;;5032844;28;20560;-44
2021/03/05 05:52:05;;;;;;;9.20;5.45;;;;;;;;;;5037619;28;20464;-44
2021/03/05 05:54:32;;;;;;;12.65;6.57;;;;;;;;;;5042640;28;20036;-44
2021/03/05 05:56:58;;;;;;;12.38;6.38;;;;;;;;;;5044107;28;20035;-45
2021/03/05 05:59:25;;;;;;;14.13;7.10;;;;;;;;;;5044516;28;20451;-44
2021/03/05 06:01:53;;;;;;;14.93;6.82;;;;;;;;;;5046135;28;20623;-44
2021/03/05 06:04:19;;;;;;;11.18;6.05;;;;;;;;;;5038191;28;20025;-44
2021/03/05 06:06:45;;;;;;;10.52;6.07;;;;;;;;;;5032909;28;20032;-44
2021/03/05 06:09:11;;;;;;;10.77;5.63;;;;;;;;;;5049586;28;20040;-44
2021/03/05 06:11:38;;;;;;;9.75;5.97;;;;;;;;;;5046765;28;20472;-44
2021/03/05 06:14:05;;;;;;;11.55;6.03;;;;;;;;;;5033397;28;20465;-44
2021/03/05 06:16:32;;;;;;;12.73;5.30;;;;;;;;;;5032608;28;20034;-45
2021/03/05 06:18:59;;;;;;;10.05;5.40;;;;;;;;;;5047412;28;20036;-44
2021/03/05 06:21:35;;;;;;;8.63;4.88;;;;;;;;;;5041963;28;20129;-44
2021/03/05 06:24:04;;;;;;;8.98;5.15;;;;;;;;;;5046431;28;20361;-47
2021/03/05 06:26:30;;;;;;;8.95;5.95;;;;;;;;;;5039248;28;20029;-45
2021/03/05 06:29:02;;;;;;;9.32;5.38;;;;;;;;;;5039176;28;20056;-47
2021/03/05 06:31:28;;;;;;;10.07;5.22;;;;;;;;;;5047084;28;20043;-44
2021/03/05 06:33:58;;;;;;;10.00;5.97;;;;;;;;;;5046686;28;20404;-44
2021/03/05 06:36:25;;;;;;;9.98;6.10;;;;;;;;;;5042398;28;20053;-44
2021/03/05 06:38:51;;;;;;;12.02;6.75;;;;;;;;;;5048352;28;20415;-45
2021/03/05 06:41:21;;;;;;;9.40;6.47;;;;;;;;;;5041715;28;20112;-45
2021/03/05 06:43:57;;;;;;;13.40;7.82;;;;;;;;;;5038103;28;20018;-45
2021/03/05 06:46:32;;;;;;;13.32;6.55;;;;;;;;;;5046025;28;20036;-45
2021/03/05 06:48:58;;;;;;;10.48;6.35;;;;;;;;;;5039736;28;20022;-45
2021/03/05 06:51:25;;;;;;;10.32;5.70;;;;;;;;;;5044724;28;20090;-44
2021/03/05 06:54:01;;;;;;;15.07;6.63;;;;;;;;;;5041469;28;20080;-45
2021/03/05 06:56:31;;;;;;;11.18;6.38;;;;;;;;;;5050493;28;20018;-44
2021/03/05 06:59:05;;;;;;;9.93;6.00;;;;;;;;;;5048376;28;20021;-44
2021/03/05 07:01:32;;;;;;;10.93;6.35;;;;;;;;;;5041362;28;20029;-44
2021/03/05 07:04:11;;;;;;;9.05;5.97;;;;;;;;;;5046364;28;20071;-46
2021/03/05 07:06:37;;;;;;;14.65;5.35;;;;;;;;;;5044282;28;20036;-45
2021/03/05 07:09:05;;;;;;;11.85;6.10;;;;;;;;;;5037439;28;20040;-44
2021/03/05 07:11:33;;;;;;;12.75;6.15;;;;;;;;;;5055013;28;20029;-45
2021/03/05 07:13:59;;;;;;;10.65;5.97;;;;;;;;;;5054520;28;20397;-44
2021/03/05 07:16:25;;;;;;;8.80;5.00;;;;;;;;;;5044236;28;20412;-44
2021/03/05 07:18:51;;;;;;;7.03;5.13;;;;;;;;;;5035746;28;20022;-44
2021/03/05 07:21:19;;;;;;;9.85;5.97;;;;;;;;;;5052310;28;20067;-46
2021/03/05 07:23:45;;;;;;;7.22;4.55;;;;;;;;;;5042719;28;20449;-45
2021/03/05 07:26:12;;;;;;;9.93;4.90;;;;;;;;;;5038707;28;20017;-46
2021/03/05 07:28:42;;;;;;;7.40;4.60;;;;;;;;;;5039907;28;20079;-46
2021/03/05 07:31:09;;;;;;;9.48;4.60;;;;;;;;;;5052030;28;20063;-47
2021/03/05 07:33:38;;;;;;;10.07;5.03;;;;;;;;;;5051385;28;20033;-44
2021/03/05 07:36:09;;;;;;;8.25;5.40;;;;;;;;;;5046012;28;20036;-44
2021/03/05 07:38:39;;;;;;;11.80;4.70;;;;;;;;;;5040971;28;20025;-47
2021/03/05 07:41:06;;;;;;;11.15;5.57;;;;;;;;;;5050770;28;20074;-45
2021/03/05 07:43:32;;;;;;;8.23;5.38;;;;;;;;;;5039604;28;20064;-45
2021/03/05 07:45:58;;;;;;;10.00;5.28;;;;;;;;;;5042975;28;20049;-44
2021/03/05 07:48:24;;;;;;;9.10;5.63;;;;;;;;;;5038882;28;20039;-44
2021/03/05 07:50:51;;;;;;;11.25;5.22;;;;;;;;;;5053625;28;20029;-44
2021/03/05 07:53:17;;;;;;;13.13;6.22;;;;;;;;;;5041466;28;20481;-44
2021/03/05 07:55:44;;;;;;;9.27;5.32;;;;;;;;;;5035725;28;20460;-47
2021/03/05 07:58:10;;;;;;;11.90;6.18;;;;;;;;;;5049138;28;20028;-45
2021/03/05 08:00:45;;;;;;;12.90;6.60;;;;;;;;;;5042227;28;20032;-44
2021/03/05 08:03:11;;;;;;;16.48;10.23;;;;;;;;;;5047894;28;20094;-45
2021/03/05 08:05:39;;;;;;;15.98;11.80;;;;;;;;;;5039833;28;20041;-47
2021/03/05 08:08:12;;;;;;;12.10;7.30;;;;;;;;;;5043731;28;20080;-45
2021/03/05 08:10:39;;;;;;;17.85;8.65;;;;;;;;;;5052073;28;20032;-45
2021/03/05 08:13:27;;;;;;;11.60;6.95;;;;;;;;;;5039580;28;20036;-46
2021/03/05 08:15:53;;;;;;;13.07;7.82;;;;;;;;;;5040016;28;20120;-44
2021/03/05 08:18:19;;;;;;;11.73;7.22;;;;;;;;;;5045252;28;20116;-44
2021/03/05 08:20:47;;;;;;;19.88;10.68;;;;;;;;;;5041695;28;21443;-45
2021/03/05 08:23:15;;;;;;;14.23;8.23;;;;;;;;;;5044320;28;20030;-47
2021/03/05 08:25:51;;;;;;;18.13;7.68;;;;;;;;;;5048087;28;20108;-44
2021/03/05 08:28:36;;;;;;;12.90;7.30;;;;;;;;;;5039337;28;20049;-45
2021/03/05 08:31:02;;;;;;;12.40;6.63;;;;;;;;;;5041462;28;20037;-45
2021/03/05 08:33:29;;;;;;;13.95;7.05;;;;;;;;;;5041150;28;20511;-45
2021/03/05 08:35:56;;;;;;;13.73;6.95;;;;;;;;;;5046272;28;20617;-44
2021/03/05 08:38:31;;;;;;;12.68;7.28;;;;;;;;;;5044833;28;20051;-44
2021/03/05 08:41:03;;;;;;;14.73;7.57;;;;;;;;;;5037506;28;20357;-45
2021/03/05 08:43:31;;;;;;;13.10;6.70;;;;;;;;;;5043896;28;20036;-45
2021/03/05 08:46:04;;;;;;;13.30;7.45;;;;;;;;;;5043763;28;20021;-45
2021/03/05 08:48:40;;;;;;;11.40;7.70;;;;;;;;;;5042294;28;20041;-47
2021/03/05 08:51:08;;;;;;;11.75;7.88;;;;;;;;;;5042596;28;20068;-45
2021/03/05 08:53:38;;;;;;;15.55;7.68;;;;;;;;;;5043567;28;20029;-44
2021/03/05 08:56:04;;;;;;;12.25;6.80;;;;;;;;;;5046141;28;20036;-45
2021/03/05 08:58:30;;;;;;;12.40;7.57;;;;;;;;;;5040134;28;20108;-47
2021/03/05 09:00:56;;;;;;;13.73;7.10;;;;;;;;;;5035352;28;20133;-47
2021/03/05 09:03:22;;;;;;;14.07;7.88;;;;;;;;;;5043629;28;20025;-46
2021/03/05 09:05:50;;;;;;;18.45;11.68;;;;;;;;;;5038553;28;20037;-44
2021/03/05 09:08:18;;;;;;;25.20;17.95;;;;;;;;;;5045821;28;20029;-45
2021/03/05 09:10:44;;;;;;;11.95;6.32;;;;;;;;;;5041422;28;20021;-44
2021/03/05 09:13:11;;;;;;;15.02;6.30;;;;;;;;;;5043606;28;20535;-45
2021/03/05 09:15:39;;;;;;;11.30;6.40;;;;;;;;;;5051517;28;20515;-47
2021/03/05 09:18:05;;;;;;;11.43;5.97;;;;;;;;;;5047290;28;20060;-46
2021/03/05 09:20:35;;;;;;;10.13;5.30;;;;;;;;;;5058385;28;20108;-45
2021/03/05 09:23:14;;;;;;;13.38;6.28;;;;;;;;;;5053730;28;20044;-46
2021/03/05 09:25:46;;;;;;;8.70;4.45;;;;;;;;;;5054068;28;20029;-46
2021/03/05 09:28:12;;;;;;;11.65;6.10;;;;;;;;;;5052344;28;20404;-45
2021/03/05 09:30:40;;;;;;;8.80;5.10;;;;;;;;;;5053048;28;20037;-44
2021/03/05 09:33:06;;;;;;;6.88;4.38;;;;;;;;;;5053997;28;20029;-45
2021/03/05 09:35:32;;;;;;;10.40;5.63;;;;;;;;;;5052489;28;20651;-45
2021/03/05 09:37:58;;;;;;;11.27;5.43;;;;;;;;;;5042622;28;20033;-44
2021/03/05 09:40:27;;;;;;;12.85;5.25;;;;;;;;;;5044629;28;20024;-46
2021/03/05 09:42:55;;;;;;;12.68;5.25;;;;;;;;;;5054143;28;20055;-48
2021/03/05 09:45:39;;;;;;;8.57;4.68;;;;;;;;;;5052948;28;20033;-45
2021/03/05 09:48:06;;;;;;;13.07;5.60;;;;;;;;;;5054558;28;20087;-44
2021/03/05 09:50:32;;;;;;;7.55;4.70;;;;;;;;;;5039344;28;20029;-45
2021/03/05 09:52:58;;;;;;;7.78;4.45;;;;;;;;;;5041579;28;20372;-44
2021/03/05 09:55:31;;;;;;;8.68;4.43;;;;;;;;;;5050508;28;20160;-45
2021/03/05 09:58:10;;;;;;;8.95;4.47;;;;;;;;;;5053114;28;20481;-44
2021/03/05 10:00:36;;;;;;;12.05;6.95;;;;;;;;;;5053054;28;20427;-45
2021/03/05 10:03:03;;;;;;;10.77;5.03;;;;;;;;;;5055424;28;20031;-45
2021/03/05 10:05:30;;;;;;;6.03;3.17;;;;;;;;;;5047367;28;20025;-45
2021/03/05 10:07:56;;;;;;;7.47;3.40;;;;;;;;;;5038333;28;20119;-45
2021/03/05 10:10:22;;;;;;;5.15;3.53;;;;;;;;;;5039581;28;20371;-44
2021/03/05 10:12:54;;;;;;;4.20;2.90;;;;;;;;;;5041811;28;20045;-45
2021/03/05 10:15:21;;;;;;;8.18;2.72;;;;;;;;;;5040381;28;20100;-45
2021/03/05 10:17:47;;;;;;;4.20;2.30;;;;;;;;;;5039524;28;20034;-45
2021/03/05 10:20:14;;;;;;;5.97;2.40;;;;;;;;;;5040924;28;20032;-45
2021/03/05 10:22:40;;;;;;;3.25;2.13;;;;;;;;;;5039088;28;20029;-45
2021/03/05 10:25:06;;;;;;;3.58;1.88;;;;;;;;;;5035770;28;20119;-45
2021/03/05 10:27:50;;;;;;;7.70;1.95;;;;;;;;;;5037030;28;20044;-47
2021/03/05 10:30:17;;;;;;;2.92;1.67;;;;;;;;;;5043774;28;20112;-49
2021/03/05 10:32:48;;;;;;;3.05;1.50;;;;;;;;;;5045841;28;20021;-45
2021/03/05 10:35:15;;;;;;;3.90;1.17;;;;;;;;;;5042210;28;20354;-45
2021/03/05 10:37:42;;;;;;;2.65;1.30;;;;;;;;;;5041356;28;20167;-45
2021/03/05 10:40:10;;;;;;;3.58;1.27;;;;;;;;;;5045584;28;20078;-46
2021/03/05 10:42:36;;;;;;;1.80;0.98;;;;;;;;;;5039660;28;20033;-47
2021/03/05 10:45:04;;;;;;;1.58;1.00;;;;;;;;;;5041544;28;20041;-45
2021/03/05 10:47:32;;;;;;;2.80;1.23;;;;;;;;;;5043642;28;20448;-46
2021/03/05 10:49:58;;;;;;;2.83;1.10;;;;;;;;;;5046668;28;20426;-45
2021/03/05 10:52:25;;;;;;;3.97;1.45;;;;;;;;;;5046636;28;20034;-45
2021/03/05 10:54:51;;;;;;;2.22;1.10;;;;;;;;;;5046462;28;20481;-45
2021/03/05 10:57:18;;;;;;;5.70;1.40;;;;;;;;;;5051496;28;20040;-45
2021/03/05 10:59:46;;;;;;;3.50;1.30;;;;;;;;;;5041841;28;20128;-45
2021/03/05 11:02:12;;;;;;;2.85;1.08;;;;;;;;;;5052351;28;20021;-45
2021/03/05 11:04:38;;;;;;;2.63;1.10;;;;;;;;;;5041828;28;20063;-45
2021/03/05 11:07:04;;;;;;;1.92;1.30;;;;;;;;;;5046507;28;20041;-45
2021/03/05 11:09:31;;;;;;;3.20;1.40;;;;;;;;;;5049364;28;20105;-45
2021/03/05 11:11:57;;;;;;;1.92;1.13;;;;;;;;;;5047732;28;20375;-49
2021/03/05 11:14:24;;;;;;;2.33;0.70;;;;;;;;;;5045872;28;20041;-45
2021/03/05 11:16:51;;;;;;;2.42;0.88;;;;;;;;;;5043630;28;20037;-45
2021/03/05 11:19:17;;;;;;;3.33;1.00;;;;;;;;;;5043832;28;20025;-46
2021/03/05 11:21:44;;;;;;;2.65;0.93;;;;;;;;;;5040818;28;20532;-46
2021/03/05 11:24:10;;;;;;;5.28;0.90;;;;;;;;;;5047689;28;20021;-48
2021/03/05 11:26:36;;;;;;;3.85;1.08;;;;;;;;;;5048642;28;20041;-47
2021/03/05 11:29:02;;;;;;;2.60;1.00;;;;;;;;;;5043566;28;20049;-46
2021/03/05 11:31:28;;;;;;;1.85;0.70;;;;;;;;;;5043431;28;20082;-47
2021/03/05 11:33:54;;;;;;;2.88;0.80;;;;;;;;;;5036877;28;20029;-45
2021/03/05 11:36:20;;;;;;;1.85;0.80;;;;;;;;;;5042862;28;20037;-46
2021/03/05 11:38:47;;;;;;;0.75;0.50;;;;;;;;;;5044284;28;20029;-47
2021/03/05 11:41:14;;;;;;;2.35;0.88;;;;;;;;;;5038860;28;20036;-45
2021/03/05 11:43:40;;;;;;;1.33;0.52;;;;;;;;;;5037972;28;20025;-46
2021/03/05 11:46:06;;;;;;;3.95;0.75;;;;;;;;;;5043086;28;20029;-46
2021/03/05 11:48:32;;;;;;;3.10;0.70;;;;;;;;;;5040694;28;20036;-45
2021/03/05 11:50:58;;;;;;;2.05;0.80;;;;;;;;;;5049290;28;20127;-44
2021/03/05 11:53:24;;;;;;;2.17;0.70;;;;;;;;;;5047517;28;20057;-51
2021/03/05 11:55:50;;;;;;;1.33;0.60;;;;;;;;;;5044252;28;20040;-43
2021/03/05 11:58:16;;;;;;;1.20;0.50;;;;;;;;;;5042113;28;20057;-43
2021/03/05 12:00:42;;;;;;;1.20;0.40;;;;;;;;;;5045469;28;20079;-43
2021/03/05 12:03:08;;;;;;;2.13;0.30;;;;;;;;;;5049745;28;20032;-47
2021/03/05 12:05:34;;;;;;;4.43;0.70;;;;;;;;;;5051289;28;20057;-43
2021/03/05 12:08:00;;;;;;;1.50;0.50;;;;;;;;;;5050413;28;20061;-43
2021/03/05 12:10:26;;;;;;;1.60;0.60;;;;;;;;;;5045711;28;20124;-46
2021/03/05 12:12:52;;;;;;;1.95;0.60;;;;;;;;;;5048079;28;20037;-45
2021/03/05 12:15:19;;;;;;;2.25;0.50;;;;;;;;;;5050746;28;20056;-45
2021/03/05 12:17:45;;;;;;;2.17;0.50;;;;;;;;;;5046431;28;20036;-43
2021/03/05 12:20:11;;;;;;;1.48;0.50;;;;;;;;;;5037967;28;20106;-45
2021/03/05 12:22:37;;;;;;;1.42;0.40;;;;;;;;;;5044689;28;20029;-43
2021/03/05 12:25:04;;;;;;;2.20;0.47;;;;;;;;;;5047628;28;20528;-45
2021/03/05 12:27:30;;;;;;;0.70;0.32;;;;;;;;;;5038141;28;20131;-44
2021/03/05 12:29:56;;;;;;;0.93;0.47;;;;;;;;;;5036515;28;20092;-44
2021/03/05 12:32:22;;;;;;;1.52;0.40;;;;;;;;;;5049478;28;20039;-47
2021/03/05 12:34:48;;;;;;;0.43;0.28;;;;;;;;;;5037082;28;20040;-45
2021/03/05 12:37:14;;;;;;;1.50;0.52;;;;;;;;;;5038707;28;20025;-44
2021/03/05 12:39:40;;;;;;;3.17;0.50;;;;;;;;;;5035442;28;20017;-44
2021/03/05 12:42:06;;;;;;;1.40;0.47;;;;;;;;;;5034098;28;20029;-46
2021/03/05 12:44:32;;;;;;;1.42;0.38;;;;;;;;;;5038372;28;20061;-45
2021/03/05 12:46:58;;;;;;;2.42;0.50;;;;;;;;;;5037628;28;20060;-45
2021/03/05 12:49:24;;;;;;;2.28;0.50;;;;;;;;;;5037405;28;20148;-44
2021/03/05 12:51:50;;;;;;;1.48;0.57;;;;;;;;;;5036488;28;20037;-44
2021/03/05 12:54:16;;;;;;;1.55;0.30;;;;;;;;;;5039142;28;20038;-43
2021/03/05 12:56:42;;;;;;;1.77;0.22;;;;;;;;;;5045205;28;20033;-43
2021/03/05 12:59:08;;;;;;;1.67;0.60;;;;;;;;;;5041599;28;20021;-43
2021/03/05 13:01:34;;;;;;;2.65;0.30;;;;;;;;;;5043033;28;20036;-43
2021/03/05 13:04:00;;;;;;;0.45;0.25;;;;;;;;;;5042328;28;20025;-43
2021/03/05 13:06:26;;;;;;;1.33;0.40;;;;;;;;;;5039163;28;20018;-43
2021/03/05 13:08:52;;;;;;;2.65;0.43;;;;;;;;;;5041676;28;20493;-43
2021/03/05 13:11:18;;;;;;;0.70;0.35;;;;;;;;;;5040907;28;20022;-44
2021/03/05 13:13:44;;;;;;;0.70;0.20;;;;;;;;;;5039839;28;20185;-46
2021/03/05 13:16:11;;;;;;;2.42;0.40;;;;;;;;;;5041223;28;20493;-44
2021/03/05 13:18:37;;;;;;;1.80;0.45;;;;;;;;;;5040431;28;20029;-45
2021/03/05 13:21:03;;;;;;;0.75;0.30;;;;;;;;;;5040913;28;20033;-45
2021/03/05 13:23:29;;;;;;;0.70;0.20;;;;;;;;;;5040414;28;20113;-47
2021/03/05 13:26:00;;;;;;;0.85;0.25;;;;;;;;;;5040604;28;20052;-44
2021/03/05 13:28:26;;;;;;;0.68;0.20;;;;;;;;;;5042938;28;20087;-44
2021/03/05 13:30:52;;;;;;;2.10;0.32;;;;;;;;;;5044664;28;20373;-44
2021/03/05 13:33:18;;;;;;;1.58;0.40;;;;;;;;;;5040216;28;20087;-43
2021/03/05 13:35:44;;;;;;;1.45;0.20;;;;;;;;;;5038159;28;20033;-44
2021/03/05 13:38:09;;;;;;;0.80;0.30;;;;;;;;;;5043851;28;20029;-43
2021/03/05 13:40:35;;;;;;;2.03;0.20;;;;;;;;;;5041824;28;20033;-44
2021/03/05 13:43:01;;;;;;;2.10;0.30;;;;;;;;;;5038618;28;20120;-43
2021/03/05 13:45:27;;;;;;;1.48;0.30;;;;;;;;;;5042080;28;20048;-43
2021/03/05 13:47:53;;;;;;;2.15;0.32;;;;;;;;;;5042640;28;20061;-44
2021/03/05 13:50:19;;;;;;;3.15;0.32;;;;;;;;;;5038695;28;20035;-43
2021/03/05 13:52:45;;;;;;;1.73;0.38;;;;;;;;;;5040366;28;20450;-43
2021/03/05 13:55:12;;;;;;;1.95;0.50;;;;;;;;;;5039079;28;20026;-44
2021/03/05 13:57:38;;;;;;;2.53;0.30;;;;;;;;;;5038411;28;20021;-45
2021/03/05 14:00:05;;;;;;;1.10;0.20;;;;;;;;;;5038627;28;20037;-43
2021/03/05 14:02:31;;;;;;;1.27;0.28;;;;;;;;;;5039769;28;20485;-43
2021/03/05 14:04:57;;;;;;;1.02;0.15;;;;;;;;;;5041111;28;20040;-45
2021/03/05 14:07:23;;;;;;;1.08;0.30;;;;;;;;;;5041579;28;20032;-44
2021/03/05 14:09:49;;;;;;;1.95;0.38;;;;;;;;;;5039384;28;20554;-48
2021/03/05 14:12:15;;;;;;;1.60;0.40;;;;;;;;;;5041892;28;20013;-47
2021/03/05 14:14:41;;;;;;;2.55;0.47;;;;;;;;;;5043215;28;20025;-44
2021/03/05 14:17:07;;;;;;;0.65;0.30;;;;;;;;;;5038279;28;20115;-43
2021/03/05 14:19:33;;;;;;;0.73;0.40;;;;;;;;;;5043698;28;20073;-45
2021/03/05 14:21:59;;;;;;;2.05;0.60;;;;;;;;;;5041303;28;20029;-45
2021/03/05 14:24:25;;;;;;;1.38;0.40;;;;;;;;;;5041047;28;20033;-45
2021/03/05 14:26:51;;;;;;;1.85;0.40;;;;;;;;;;5038514;28;20033;-44
2021/03/05 14:29:17;;;;;;;0.85;0.40;;;;;;;;;;5034081;28;20034;-45
2021/03/05 14:31:43;;;;;;;2.97;0.52;;;;;;;;;;5039437;28;20028;-46
2021/03/05 14:34:10;;;;;;;1.25;0.50;;;;;;;;;;5035897;28;20053;-46
2021/03/05 14:36:36;;;;;;;0.93;0.32;;;;;;;;;;5044884;28;20021;-47